UAL1358 KDEN-KEGE
Flight info
| Callsign | UAL1358 |
|---|---|
| Flight time | N/A |
| Altitude | 24000 |
| Route | ZIMMR4 ZIMMR CULCH |
| Aircraft | B738/M-SDE2E3FGHIRWXY/LB1 |
Departure
| Time | 2026-05-06 23:56 |
|---|---|
| Airport | Denver International Airport (KDEN) |
Arrival
| Time | N/A |
|---|---|
| Airport | Eagle County Regional Airport (KEGE) |
| Time | Latitude | Longitude | Altitude | Speed | Heading |
|---|---|---|---|---|---|
| 2026-05-06 23:29 | 39.85938 | -104.67754 | 5379 ft | 0 kts | 180° |
| 2026-05-06 23:45 | 39.85952 | -104.67754 | 5379 ft | 2 kts | 180° |
| 2026-05-06 23:45 | 39.85966 | -104.67754 | 5379 ft | 2 kts | 180° |
| 2026-05-06 23:45 | 39.85981 | -104.67754 | 5379 ft | 2 kts | 180° |
| 2026-05-06 23:46 | 39.85996 | -104.67754 | 5379 ft | 2 kts | 180° |
| 2026-05-06 23:46 | 39.86011 | -104.67754 | 5379 ft | 1 kts | 180° |
| 2026-05-06 23:46 | 39.86013 | -104.67754 | 5378 ft | 0 kts | 180° |
| 2026-05-06 23:49 | 39.86008 | -104.67773 | 5379 ft | 6 kts | 272° |
| 2026-05-06 23:49 | 39.86015 | -104.67927 | 5378 ft | 26 kts | 268° |
| 2026-05-06 23:50 | 39.86016 | -104.68142 | 5378 ft | 16 kts | 270° |
| 2026-05-06 23:50 | 39.86004 | -104.68382 | 5372 ft | 14 kts | 208° |
| 2026-05-06 23:50 | 39.85903 | -104.68394 | 5372 ft | 16 kts | 179° |
| 2026-05-06 23:51 | 39.85777 | -104.68395 | 5372 ft | 20 kts | 181° |
| 2026-05-06 23:51 | 39.85621 | -104.68398 | 5372 ft | 24 kts | 180° |
| 2026-05-06 23:51 | 39.85464 | -104.68400 | 5372 ft | 23 kts | 180° |
| 2026-05-06 23:51 | 39.85398 | -104.68401 | 5372 ft | 11 kts | 180° |
| 2026-05-06 23:52 | 39.85280 | -104.68401 | 5372 ft | 17 kts | 180° |
| 2026-05-06 23:52 | 39.85206 | -104.68473 | 5372 ft | 14 kts | 265° |
| 2026-05-06 23:52 | 39.85202 | -104.68600 | 5370 ft | 14 kts | 272° |
| 2026-05-06 23:52 | 39.85202 | -104.68739 | 5364 ft | 17 kts | 268° |
| 2026-05-06 23:53 | 39.85196 | -104.68921 | 5353 ft | 21 kts | 268° |
| 2026-05-06 23:53 | 39.85196 | -104.69114 | 5348 ft | 23 kts | 269° |
| 2026-05-06 23:53 | 39.85199 | -104.69367 | 5336 ft | 29 kts | 271° |
| 2026-05-06 23:53 | 39.85200 | -104.69551 | 5336 ft | 16 kts | 270° |
| 2026-05-06 23:54 | 39.85243 | -104.69656 | 5336 ft | 13 kts | 351° |
| 2026-05-06 23:54 | 39.85265 | -104.69657 | 5336 ft | 0 kts | 359° |
| 2026-05-06 23:55 | 39.85268 | -104.69657 | 5336 ft | 2 kts | 359° |
| 2026-05-06 23:55 | 39.85448 | -104.69656 | 5334 ft | 54 kts | 0° |
| 2026-05-06 23:55 | 39.86029 | -104.69652 | 5330 ft | 111 kts | 360° |
| 2026-05-06 23:55 | 39.86992 | -104.69640 | 5330 ft | 160 kts | 360° |
| 2026-05-06 23:56 | 39.88179 | -104.69630 | 5676 ft | 169 kts | 1° |
| 2026-05-06 23:56 | 39.89285 | -104.69589 | 6342 ft | 163 kts | 360° |
| 2026-05-06 23:56 | 39.90483 | -104.69626 | 6773 ft | 177 kts | 353° |
| 2026-05-06 23:56 | 39.91668 | -104.70070 | 7217 ft | 184 kts | 328° |
| 2026-05-06 23:57 | 39.92609 | -104.71244 | 7585 ft | 194 kts | 302° |
| 2026-05-06 23:57 | 39.93142 | -104.72894 | 7891 ft | 211 kts | 279° |
| 2026-05-06 23:57 | 39.93212 | -104.74870 | 8313 ft | 224 kts | 270° |
| 2026-05-06 23:57 | 39.93183 | -104.76939 | 8732 ft | 237 kts | 270° |
| 2026-05-06 23:58 | 39.93172 | -104.79156 | 9102 ft | 253 kts | 272° |
| 2026-05-06 23:58 | 39.93181 | -104.81484 | 9548 ft | 266 kts | 272° |
| 2026-05-06 23:58 | 39.93198 | -104.83946 | 9932 ft | 275 kts | 273° |
| 2026-05-06 23:58 | 39.93212 | -104.86437 | 9976 ft | 273 kts | 273° |
| 2026-05-06 23:59 | 39.93225 | -104.88891 | 9972 ft | 272 kts | 272° |
| 2026-05-06 23:59 | 39.93244 | -104.91383 | 9977 ft | 277 kts | 273° |
| 2026-05-06 23:59 | 39.93297 | -104.93930 | 10477 ft | 286 kts | 274° |
| 2026-05-06 23:59 | 39.93362 | -104.96477 | 11416 ft | 281 kts | 275° |
| 2026-05-07 00:00 | 39.93426 | -104.98980 | 12185 ft | 281 kts | 275° |
| 2026-05-07 00:00 | 39.93488 | -105.01551 | 12895 ft | 285 kts | 274° |
| 2026-05-07 00:00 | 39.93547 | -105.04110 | 13614 ft | 287 kts | 275° |
| 2026-05-07 00:00 | 39.93586 | -105.05852 | 14115 ft | 289 kts | 275° |
| 2026-05-07 00:01 | 39.93666 | -105.09360 | 15000 ft | 294 kts | 276° |
| 2026-05-07 00:01 | 39.93726 | -105.12021 | 15586 ft | 301 kts | 277° |
| 2026-05-07 00:01 | 39.93787 | -105.14790 | 16254 ft | 305 kts | 277° |
| 2026-05-07 00:01 | 39.93844 | -105.17516 | 16937 ft | 307 kts | 277° |
| 2026-05-07 00:02 | 39.93901 | -105.20314 | 17509 ft | 313 kts | 278° |
| 2026-05-07 00:02 | 39.93975 | -105.23158 | 18142 ft | 315 kts | 281° |
| 2026-05-07 00:02 | 39.94145 | -105.25962 | 18781 ft | 315 kts | 284° |
| 2026-05-07 00:02 | 39.94398 | -105.28837 | 19305 ft | 320 kts | 284° |
| 2026-05-07 00:03 | 39.94655 | -105.31679 | 19883 ft | 323 kts | 284° |
| 2026-05-07 00:03 | 39.94908 | -105.34610 | 20344 ft | 330 kts | 284° |
| 2026-05-07 00:03 | 39.95151 | -105.37611 | 20997 ft | 330 kts | 284° |
| 2026-05-07 00:03 | 39.95384 | -105.40571 | 21329 ft | 340 kts | 284° |
| 2026-05-07 00:04 | 39.95634 | -105.43679 | 21633 ft | 351 kts | 284° |
| 2026-05-07 00:04 | 39.95894 | -105.46903 | 21837 ft | 365 kts | 283° |
| 2026-05-07 00:04 | 39.96161 | -105.50243 | 22065 ft | 379 kts | 283° |
| 2026-05-07 00:04 | 39.96429 | -105.53693 | 22596 ft | 383 kts | 283° |
| 2026-05-07 00:05 | 39.96694 | -105.57138 | 23133 ft | 388 kts | 283° |
| 2026-05-07 00:05 | 39.96960 | -105.60661 | 23651 ft | 392 kts | 283° |
| 2026-05-07 00:05 | 39.97221 | -105.64168 | 24080 ft | 388 kts | 283° |
| 2026-05-07 00:05 | 39.97473 | -105.67700 | 24120 ft | 388 kts | 282° |
| 2026-05-07 00:06 | 39.97693 | -105.71218 | 24121 ft | 394 kts | 282° |
| 2026-05-07 00:06 | 39.97900 | -105.74865 | 24122 ft | 400 kts | 281° |
| 2026-05-07 00:06 | 39.98083 | -105.78384 | 24124 ft | 386 kts | 281° |
| 2026-05-07 00:06 | 39.98246 | -105.81792 | 24131 ft | 369 kts | 282° |
| 2026-05-07 00:07 | 39.98403 | -105.85072 | 24013 ft | 356 kts | 282° |
| 2026-05-07 00:07 | 39.98564 | -105.88267 | 23697 ft | 349 kts | 282° |
| 2026-05-07 00:07 | 39.98731 | -105.91376 | 23278 ft | 346 kts | 283° |
| 2026-05-07 00:07 | 39.98903 | -105.94514 | 22846 ft | 344 kts | 283° |
| 2026-05-07 00:08 | 39.99076 | -105.97625 | 22399 ft | 342 kts | 282° |
| 2026-05-07 00:08 | 39.99246 | -106.00695 | 21961 ft | 341 kts | 282° |
| 2026-05-07 00:08 | 39.99413 | -106.03753 | 21523 ft | 339 kts | 282° |
| 2026-05-07 00:08 | 39.99577 | -106.06799 | 21092 ft | 337 kts | 282° |
| 2026-05-07 00:09 | 39.99737 | -106.09824 | 20659 ft | 335 kts | 282° |
| 2026-05-07 00:09 | 39.99896 | -106.12835 | 20233 ft | 333 kts | 282° |
| 2026-05-07 00:09 | 40.00053 | -106.15871 | 19795 ft | 332 kts | 282° |
| 2026-05-07 00:09 | 40.00208 | -106.18849 | 19369 ft | 329 kts | 282° |
| 2026-05-07 00:10 | 40.00359 | -106.21803 | 18961 ft | 327 kts | 281° |
| 2026-05-07 00:10 | 40.00508 | -106.24726 | 18577 ft | 324 kts | 282° |
| 2026-05-07 00:10 | 40.00655 | -106.27625 | 18169 ft | 322 kts | 282° |
| 2026-05-07 00:10 | 40.00802 | -106.30522 | 17756 ft | 320 kts | 282° |
| 2026-05-07 00:11 | 40.00948 | -106.33401 | 17403 ft | 316 kts | 281° |
| 2026-05-07 00:11 | 40.01092 | -106.36257 | 17165 ft | 308 kts | 281° |
| 2026-05-07 00:11 | 40.01223 | -106.38979 | 17063 ft | 297 kts | 280° |
| 2026-05-07 00:11 | 40.01208 | -106.41623 | 16959 ft | 291 kts | 271° |
| 2026-05-07 00:12 | 40.00640 | -106.44144 | 16759 ft | 299 kts | 246° |
| 2026-05-07 00:12 | 39.99234 | -106.46191 | 16433 ft | 308 kts | 224° |
| 2026-05-07 00:12 | 39.97452 | -106.47806 | 16082 ft | 310 kts | 217° |
| 2026-05-07 00:12 | 39.95662 | -106.49303 | 15755 ft | 303 kts | 218° |
| 2026-05-07 00:13 | 39.93962 | -106.50835 | 15446 ft | 296 kts | 221° |
| 2026-05-07 00:13 | 39.92309 | -106.52428 | 15133 ft | 290 kts | 222° |
| 2026-05-07 00:13 | 39.90727 | -106.53993 | 14824 ft | 284 kts | 222° |
| 2026-05-07 00:13 | 39.89177 | -106.55532 | 14525 ft | 279 kts | 222° |
| 2026-05-07 00:14 | 39.87637 | -106.57055 | 14252 ft | 272 kts | 221° |
| 2026-05-07 00:14 | 39.86160 | -106.58507 | 14143 ft | 259 kts | 222° |
| 2026-05-07 00:14 | 39.84763 | -106.59874 | 14075 ft | 245 kts | 223° |
| 2026-05-07 00:14 | 39.83424 | -106.61136 | 14006 ft | 233 kts | 217° |
| 2026-05-07 00:15 | 39.81958 | -106.61997 | 13875 ft | 227 kts | 196° |
| 2026-05-07 00:15 | 39.80414 | -106.62270 | 13619 ft | 224 kts | 189° |
| 2026-05-07 00:15 | 39.78881 | -106.62440 | 13366 ft | 218 kts | 189° |
| 2026-05-07 00:15 | 39.77393 | -106.62651 | 13142 ft | 211 kts | 191° |
| 2026-05-07 00:16 | 39.75956 | -106.62891 | 12859 ft | 209 kts | 191° |
| 2026-05-07 00:16 | 39.74498 | -106.63134 | 12377 ft | 217 kts | 191° |
| 2026-05-07 00:16 | 39.72993 | -106.63376 | 11943 ft | 221 kts | 190° |
| 2026-05-07 00:16 | 39.71451 | -106.63621 | 11509 ft | 225 kts | 190° |
| 2026-05-07 00:17 | 39.69924 | -106.64040 | 11080 ft | 226 kts | 204° |
| 2026-05-07 00:17 | 39.68632 | -106.65205 | 10546 ft | 226 kts | 231° |
| 2026-05-07 00:17 | 39.67647 | -106.66795 | 10166 ft | 222 kts | 235° |
| 2026-05-07 00:17 | 39.66874 | -106.68427 | 10140 ft | 198 kts | 249° |
| 2026-05-07 00:18 | 39.66539 | -106.70027 | 10074 ft | 173 kts | 268° |
| 2026-05-07 00:18 | 39.66448 | -106.71483 | 9990 ft | 150 kts | 268° |
| 2026-05-07 00:18 | 39.66325 | -106.72784 | 9728 ft | 141 kts | 264° |
| 2026-05-07 00:18 | 39.66165 | -106.74000 | 9386 ft | 136 kts | 267° |